sensor_id;sensor_type;location;lat;lon;timestamp;P1;durP1;ratioP1;P2;durP2;ratioP2
22628;SDS011;11481;53.694;9.910;2023-03-01T00:01:12;7.40;;;3.40;;
22628;SDS011;11481;53.694;9.910;2023-03-01T00:03:41;7.18;;;3.83;;
22628;SDS011;11481;53.694;9.910;2023-03-01T00:06:08;8.70;;;3.65;;
22628;SDS011;11481;53.694;9.910;2023-03-01T00:08:36;5.90;;;2.67;;
22628;SDS011;11481;53.694;9.910;2023-03-01T00:13:43;7.93;;;3.50;;
22628;SDS011;11481;53.694;9.910;2023-03-01T00:16:11;7.50;;;3.47;;
22628;SDS011;11481;53.694;9.910;2023-03-01T00:18:40;6.97;;;4.10;;
22628;SDS011;11481;53.694;9.910;2023-03-01T00:21:07;9.77;;;3.70;;
22628;SDS011;11481;53.694;9.910;2023-03-01T00:23:34;9.63;;;3.88;;
22628;SDS011;11481;53.694;9.910;2023-03-01T00:26:01;6.20;;;2.80;;
22628;SDS011;11481;53.694;9.910;2023-03-01T00:28:32;9.82;;;3.95;;
22628;SDS011;11481;53.694;9.910;2023-03-01T00:31:03;9.68;;;4.10;;
22628;SDS011;11481;53.694;9.910;2023-03-01T00:33:40;7.35;;;2.97;;
22628;SDS011;11481;53.694;9.910;2023-03-01T00:36:07;11.95;;;3.92;;
22628;SDS011;11481;53.694;9.910;2023-03-01T00:38:36;4.68;;;2.75;;
22628;SDS011;11481;53.694;9.910;2023-03-01T00:41:07;10.35;;;3.75;;
22628;SDS011;11481;53.694;9.910;2023-03-01T00:43:42;8.73;;;3.28;;
22628;SDS011;11481;53.694;9.910;2023-03-01T00:46:13;6.40;;;3.28;;
22628;SDS011;11481;53.694;9.910;2023-03-01T00:48:41;4.88;;;2.70;;
22628;SDS011;11481;53.694;9.910;2023-03-01T00:51:10;5.25;;;3.10;;
22628;SDS011;11481;53.694;9.910;2023-03-01T00:53:52;7.78;;;2.55;;
22628;SDS011;11481;53.694;9.910;2023-03-01T00:56:19;6.70;;;3.22;;
22628;SDS011;11481;53.694;9.910;2023-03-01T00:58:47;9.85;;;3.72;;
22628;SDS011;11481;53.694;9.910;2023-03-01T01:01:15;6.18;;;2.78;;
22628;SDS011;11481;53.694;9.910;2023-03-01T01:03:48;5.25;;;2.85;;
22628;SDS011;11481;53.694;9.910;2023-03-01T01:06:22;8.80;;;3.63;;
22628;SDS011;11481;53.694;9.910;2023-03-01T01:08:50;8.10;;;3.25;;
22628;SDS011;11481;53.694;9.910;2023-03-01T01:11:18;8.63;;;3.00;;
22628;SDS011;11481;53.694;9.910;2023-03-01T01:13:46;5.97;;;3.10;;
22628;SDS011;11481;53.694;9.910;2023-03-01T01:16:13;8.18;;;2.92;;
22628;SDS011;11481;53.694;9.910;2023-03-01T01:18:41;5.30;;;3.05;;
22628;SDS011;11481;53.694;9.910;2023-03-01T01:21:10;9.48;;;3.63;;
22628;SDS011;11481;53.694;9.910;2023-03-01T01:23:38;8.98;;;3.72;;
22628;SDS011;11481;53.694;9.910;2023-03-01T01:26:14;5.38;;;2.65;;
22628;SDS011;11481;53.694;9.910;2023-03-01T01:28:41;4.30;;;2.72;;
22628;SDS011;11481;53.694;9.910;2023-03-01T01:31:08;5.85;;;3.65;;
22628;SDS011;11481;53.694;9.910;2023-03-01T01:33:35;8.48;;;3.42;;
22628;SDS011;11481;53.694;9.910;2023-03-01T01:36:04;7.85;;;3.50;;
22628;SDS011;11481;53.694;9.910;2023-03-01T01:38:31;4.55;;;2.47;;
22628;SDS011;11481;53.694;9.910;2023-03-01T01:40:58;7.30;;;3.35;;
22628;SDS011;11481;53.694;9.910;2023-03-01T01:43:30;7.13;;;3.13;;
22628;SDS011;11481;53.694;9.910;2023-03-01T01:45:59;6.80;;;2.42;;
22628;SDS011;11481;53.694;9.910;2023-03-01T01:48:40;8.02;;;4.40;;
22628;SDS011;11481;53.694;9.910;2023-03-01T01:51:17;6.28;;;2.80;;
22628;SDS011;11481;53.694;9.910;2023-03-01T01:53:51;6.63;;;3.00;;
22628;SDS011;11481;53.694;9.910;2023-03-01T01:56:24;8.88;;;2.38;;
22628;SDS011;11481;53.694;9.910;2023-03-01T01:58:53;4.63;;;3.03;;
22628;SDS011;11481;53.694;9.910;2023-03-01T02:01:21;5.18;;;2.63;;
22628;SDS011;11481;53.694;9.910;2023-03-01T02:03:47;7.68;;;3.00;;
22628;SDS011;11481;53.694;9.910;2023-03-01T02:08:45;7.05;;;3.17;;
22628;SDS011;11481;53.694;9.910;2023-03-01T02:11:13;10.45;;;2.78;;
22628;SDS011;11481;53.694;9.910;2023-03-01T02:13:41;6.18;;;2.28;;
22628;SDS011;11481;53.694;9.910;2023-03-01T02:16:08;7.28;;;2.35;;
22628;SDS011;11481;53.694;9.910;2023-03-01T02:18:37;5.40;;;2.85;;
22628;SDS011;11481;53.694;9.910;2023-03-01T02:21:08;7.32;;;2.72;;
22628;SDS011;11481;53.694;9.910;2023-03-01T02:23:57;3.50;;;2.45;;
22628;SDS011;11481;53.694;9.910;2023-03-01T02:26:40;4.10;;;2.40;;
22628;SDS011;11481;53.694;9.910;2023-03-01T02:29:11;6.40;;;3.00;;
22628;SDS011;11481;53.694;9.910;2023-03-01T02:31:38;8.77;;;3.35;;
22628;SDS011;11481;53.694;9.910;2023-03-01T02:34:14;4.20;;;2.20;;
22628;SDS011;11481;53.694;9.910;2023-03-01T02:36:44;6.47;;;3.30;;
22628;SDS011;11481;53.694;9.910;2023-03-01T02:39:18;11.93;;;3.55;;
22628;SDS011;11481;53.694;9.910;2023-03-01T02:41:51;4.65;;;2.88;;
22628;SDS011;11481;53.694;9.910;2023-03-01T02:44:20;7.28;;;3.10;;
22628;SDS011;11481;53.694;9.910;2023-03-01T02:46:50;7.43;;;3.45;;
22628;SDS011;11481;53.694;9.910;2023-03-01T02:49:22;4.60;;;3.08;;
22628;SDS011;11481;53.694;9.910;2023-03-01T02:55:01;5.03;;;2.40;;
22628;SDS011;11481;53.694;9.910;2023-03-01T02:57:30;4.82;;;2.83;;
22628;SDS011;11481;53.694;9.910;2023-03-01T02:59:59;5.82;;;2.55;;
22628;SDS011;11481;53.694;9.910;2023-03-01T03:02:34;4.93;;;2.70;;
22628;SDS011;11481;53.694;9.910;2023-03-01T03:05:09;5.40;;;2.45;;
22628;SDS011;11481;53.694;9.910;2023-03-01T03:07:39;7.15;;;2.80;;
22628;SDS011;11481;53.694;9.910;2023-03-01T03:10:09;6.28;;;2.80;;
22628;SDS011;11481;53.694;9.910;2023-03-01T03:12:38;15.75;;;2.90;;
22628;SDS011;11481;53.694;9.910;2023-03-01T03:15:05;7.95;;;3.38;;
22628;SDS011;11481;53.694;9.910;2023-03-01T03:17:35;8.90;;;3.63;;
22628;SDS011;11481;53.694;9.910;2023-03-01T03:20:03;4.72;;;2.10;;
22628;SDS011;11481;53.694;9.910;2023-03-01T03:22:32;6.75;;;3.08;;
22628;SDS011;11481;53.694;9.910;2023-03-01T03:25:00;13.25;;;3.28;;
22628;SDS011;11481;53.694;9.910;2023-03-01T03:27:28;6.32;;;3.05;;
22628;SDS011;11481;53.694;9.910;2023-03-01T03:29:54;4.63;;;2.75;;
22628;SDS011;11481;53.694;9.910;2023-03-01T03:32:21;6.95;;;2.67;;
22628;SDS011;11481;53.694;9.910;2023-03-01T03:34:48;5.47;;;2.78;;
22628;SDS011;11481;53.694;9.910;2023-03-01T03:37:15;4.88;;;2.53;;
22628;SDS011;11481;53.694;9.910;2023-03-01T03:40:00;4.88;;;2.30;;
22628;SDS011;11481;53.694;9.910;2023-03-01T03:42:27;3.83;;;2.67;;
22628;SDS011;11481;53.694;9.910;2023-03-01T03:44:53;6.13;;;2.58;;
22628;SDS011;11481;53.694;9.910;2023-03-01T03:47:20;8.00;;;2.38;;
22628;SDS011;11481;53.694;9.910;2023-03-01T03:49:47;3.30;;;2.22;;
22628;SDS011;11481;53.694;9.910;2023-03-01T03:52:13;5.22;;;2.50;;
22628;SDS011;11481;53.694;9.910;2023-03-01T03:54:40;4.65;;;2.50;;
22628;SDS011;11481;53.694;9.910;2023-03-01T03:57:07;5.47;;;3.00;;
22628;SDS011;11481;53.694;9.910;2023-03-01T03:59:33;4.32;;;2.28;;
22628;SDS011;11481;53.694;9.910;2023-03-01T04:02:00;5.93;;;2.40;;
22628;SDS011;11481;53.694;9.910;2023-03-01T04:04:27;4.65;;;1.80;;
22628;SDS011;11481;53.694;9.910;2023-03-01T04:06:53;4.97;;;2.47;;
22628;SDS011;11481;53.694;9.910;2023-03-01T04:09:20;4.78;;;2.15;;
22628;SDS011;11481;53.694;9.910;2023-03-01T04:11:47;4.88;;;2.55;;
22628;SDS011;11481;53.694;9.910;2023-03-01T04:14:13;5.25;;;2.90;;
22628;SDS011;11481;53.694;9.910;2023-03-01T04:16:40;10.40;;;3.20;;
22628;SDS011;11481;53.694;9.910;2023-03-01T04:19:07;6.60;;;2.58;;
22628;SDS011;11481;53.694;9.910;2023-03-01T04:21:35;4.68;;;2.38;;
22628;SDS011;11481;53.694;9.910;2023-03-01T04:24:02;8.02;;;3.38;;
22628;SDS011;11481;53.694;9.910;2023-03-01T04:26:29;4.60;;;2.78;;
22628;SDS011;11481;53.694;9.910;2023-03-01T04:28:56;5.50;;;2.38;;
22628;SDS011;11481;53.694;9.910;2023-03-01T04:31:23;5.57;;;3.28;;
22628;SDS011;11481;53.694;9.910;2023-03-01T04:33:54;3.15;;;2.30;;
22628;SDS011;11481;53.694;9.910;2023-03-01T04:36:23;8.77;;;3.17;;
22628;SDS011;11481;53.694;9.910;2023-03-01T04:38:51;6.53;;;3.03;;
22628;SDS011;11481;53.694;9.910;2023-03-01T04:41:19;7.13;;;2.83;;
22628;SDS011;11481;53.694;9.910;2023-03-01T04:43:47;9.45;;;3.60;;
22628;SDS011;11481;53.694;9.910;2023-03-01T04:46:15;9.00;;;3.47;;
22628;SDS011;11481;53.694;9.910;2023-03-01T04:48:45;5.10;;;2.83;;
22628;SDS011;11481;53.694;9.910;2023-03-01T04:51:13;8.55;;;3.58;;
22628;SDS011;11481;53.694;9.910;2023-03-01T04:53:40;6.50;;;2.70;;
22628;SDS011;11481;53.694;9.910;2023-03-01T04:56:08;8.00;;;3.40;;
22628;SDS011;11481;53.694;9.910;2023-03-01T04:58:35;4.50;;;2.65;;
22628;SDS011;11481;53.694;9.910;2023-03-01T05:01:01;11.07;;;4.20;;
22628;SDS011;11481;53.694;9.910;2023-03-01T05:03:44;8.05;;;3.03;;
22628;SDS011;11481;53.694;9.910;2023-03-01T05:06:12;11.35;;;3.55;;
22628;SDS011;11481;53.694;9.910;2023-03-01T05:08:40;8.65;;;3.38;;
22628;SDS011;11481;53.694;9.910;2023-03-01T05:11:08;5.32;;;2.92;;
22628;SDS011;11481;53.694;9.910;2023-03-01T05:13:36;4.28;;;2.15;;
22628;SDS011;11481;53.694;9.910;2023-03-01T05:16:04;7.68;;;3.17;;
22628;SDS011;11481;53.694;9.910;2023-03-01T05:18:33;6.82;;;2.83;;
22628;SDS011;11481;53.694;9.910;2023-03-01T05:21:10;10.25;;;2.95;;
22628;SDS011;11481;53.694;9.910;2023-03-01T05:23:39;6.20;;;2.35;;
22628;SDS011;11481;53.694;9.910;2023-03-01T05:26:06;6.38;;;2.67;;
22628;SDS011;11481;53.694;9.910;2023-03-01T05:28:47;4.95;;;2.72;;
22628;SDS011;11481;53.694;9.910;2023-03-01T05:31:14;4.20;;;2.40;;
22628;SDS011;11481;53.694;9.910;2023-03-01T05:33:44;7.03;;;3.42;;
22628;SDS011;11481;53.694;9.910;2023-03-01T05:36:11;9.13;;;3.92;;
22628;SDS011;11481;53.694;9.910;2023-03-01T05:38:38;6.15;;;2.92;;
22628;SDS011;11481;53.694;9.910;2023-03-01T05:41:04;5.63;;;2.85;;
22628;SDS011;11481;53.694;9.910;2023-03-01T05:43:31;5.90;;;2.97;;
22628;SDS011;11481;53.694;9.910;2023-03-01T05:46:01;6.68;;;3.22;;
22628;SDS011;11481;53.694;9.910;2023-03-01T05:48:28;9.80;;;3.05;;
22628;SDS011;11481;53.694;9.910;2023-03-01T05:50:54;5.82;;;2.28;;
22628;SDS011;11481;53.694;9.910;2023-03-01T05:53:27;6.30;;;2.78;;
22628;SDS011;11481;53.694;9.910;2023-03-01T05:55:53;8.45;;;3.58;;
22628;SDS011;11481;53.694;9.910;2023-03-01T05:58:20;5.68;;;2.63;;
22628;SDS011;11481;53.694;9.910;2023-03-01T06:00:49;5.32;;;3.15;;
22628;SDS011;11481;53.694;9.910;2023-03-01T06:03:19;11.20;;;2.60;;
22628;SDS011;11481;53.694;9.910;2023-03-01T06:05:45;8.82;;;2.83;;
22628;SDS011;11481;53.694;9.910;2023-03-01T06:08:12;7.60;;;2.83;;
22628;SDS011;11481;53.694;9.910;2023-03-01T06:10:40;7.10;;;3.35;;
22628;SDS011;11481;53.694;9.910;2023-03-01T06:13:06;7.55;;;3.78;;
22628;SDS011;11481;53.694;9.910;2023-03-01T06:15:33;5.60;;;2.90;;
22628;SDS011;11481;53.694;9.910;2023-03-01T06:18:00;4.85;;;2.75;;
22628;SDS011;11481;53.694;9.910;2023-03-01T06:20:27;8.13;;;3.83;;
22628;SDS011;11481;53.694;9.910;2023-03-01T06:22:55;6.63;;;3.05;;
22628;SDS011;11481;53.694;9.910;2023-03-01T06:25:22;6.32;;;3.42;;
22628;SDS011;11481;53.694;9.910;2023-03-01T06:27:51;7.75;;;4.28;;
22628;SDS011;11481;53.694;9.910;2023-03-01T06:30:21;6.28;;;3.33;;
22628;SDS011;11481;53.694;9.910;2023-03-01T06:32:50;7.00;;;3.17;;
22628;SDS011;11481;53.694;9.910;2023-03-01T06:35:17;9.25;;;3.55;;
22628;SDS011;11481;53.694;9.910;2023-03-01T06:37:45;6.63;;;3.13;;
22628;SDS011;11481;53.694;9.910;2023-03-01T06:40:14;8.93;;;3.75;;
22628;SDS011;11481;53.694;9.910;2023-03-01T06:42:42;6.07;;;2.83;;
22628;SDS011;11481;53.694;9.910;2023-03-01T06:45:10;4.30;;;2.30;;
22628;SDS011;11481;53.694;9.910;2023-03-01T06:47:39;3.67;;;2.58;;
22628;SDS011;11481;53.694;9.910;2023-03-01T06:50:06;8.85;;;4.05;;
22628;SDS011;11481;53.694;9.910;2023-03-01T06:52:33;5.28;;;3.08;;
22628;SDS011;11481;53.694;9.910;2023-03-01T06:55:00;7.70;;;3.10;;
22628;SDS011;11481;53.694;9.910;2023-03-01T06:57:27;5.22;;;2.85;;
22628;SDS011;11481;53.694;9.910;2023-03-01T06:59:54;4.40;;;2.80;;
22628;SDS011;11481;53.694;9.910;2023-03-01T07:02:22;7.95;;;2.92;;
22628;SDS011;11481;53.694;9.910;2023-03-01T07:04:49;7.22;;;2.80;;
22628;SDS011;11481;53.694;9.910;2023-03-01T07:07:17;4.55;;;2.47;;
22628;SDS011;11481;53.694;9.910;2023-03-01T07:09:45;5.70;;;2.97;;
22628;SDS011;11481;53.694;9.910;2023-03-01T07:12:13;12.68;;;2.92;;
22628;SDS011;11481;53.694;9.910;2023-03-01T07:14:39;6.50;;;3.05;;
22628;SDS011;11481;53.694;9.910;2023-03-01T07:17:08;6.80;;;3.20;;
22628;SDS011;11481;53.694;9.910;2023-03-01T07:19:38;8.48;;;2.50;;
22628;SDS011;11481;53.694;9.910;2023-03-01T07:22:05;4.82;;;2.35;;
22628;SDS011;11481;53.694;9.910;2023-03-01T07:24:33;10.32;;;3.15;;
22628;SDS011;11481;53.694;9.910;2023-03-01T07:27:00;6.60;;;3.33;;
22628;SDS011;11481;53.694;9.910;2023-03-01T07:29:27;6.68;;;3.40;;
22628;SDS011;11481;53.694;9.910;2023-03-01T07:31:54;3.85;;;2.30;;
22628;SDS011;11481;53.694;9.910;2023-03-01T07:34:21;7.88;;;3.13;;
22628;SDS011;11481;53.694;9.910;2023-03-01T07:36:48;7.05;;;3.20;;
22628;SDS011;11481;53.694;9.910;2023-03-01T07:39:15;10.38;;;4.47;;
22628;SDS011;11481;53.694;9.910;2023-03-01T07:41:44;12.35;;;4.32;;
22628;SDS011;11481;53.694;9.910;2023-03-01T07:44:11;7.97;;;4.28;;
22628;SDS011;11481;53.694;9.910;2023-03-01T07:46:38;8.30;;;3.70;;
22628;SDS011;11481;53.694;9.910;2023-03-01T07:49:05;6.28;;;3.65;;
22628;SDS011;11481;53.694;9.910;2023-03-01T07:51:32;8.40;;;3.65;;
22628;SDS011;11481;53.694;9.910;2023-03-01T07:53:59;10.05;;;3.60;;
22628;SDS011;11481;53.694;9.910;2023-03-01T07:56:28;7.15;;;3.38;;
22628;SDS011;11481;53.694;9.910;2023-03-01T07:58:55;8.90;;;4.00;;
22628;SDS011;11481;53.694;9.910;2023-03-01T08:01:24;9.95;;;3.92;;
22628;SDS011;11481;53.694;9.910;2023-03-01T08:03:50;12.07;;;3.92;;
22628;SDS011;11481;53.694;9.910;2023-03-01T08:06:18;7.78;;;3.42;;
22628;SDS011;11481;53.694;9.910;2023-03-01T08:08:45;9.73;;;4.40;;
22628;SDS011;11481;53.694;9.910;2023-03-01T08:11:13;10.65;;;5.28;;
22628;SDS011;11481;53.694;9.910;2023-03-01T08:13:41;11.38;;;4.95;;
22628;SDS011;11481;53.694;9.910;2023-03-01T08:16:12;11.82;;;3.65;;
22628;SDS011;11481;53.694;9.910;2023-03-01T08:18:41;9.45;;;3.28;;
22628;SDS011;11481;53.694;9.910;2023-03-01T08:21:10;7.55;;;3.97;;
22628;SDS011;11481;53.694;9.910;2023-03-01T08:23:39;9.73;;;3.97;;
22628;SDS011;11481;53.694;9.910;2023-03-01T08:26:12;16.75;;;5.70;;
22628;SDS011;11481;53.694;9.910;2023-03-01T08:28:42;13.48;;;4.57;;
22628;SDS011;11481;53.694;9.910;2023-03-01T08:33:43;15.88;;;4.00;;
22628;SDS011;11481;53.694;9.910;2023-03-01T08:36:13;10.13;;;4.78;;
22628;SDS011;11481;53.694;9.910;2023-03-01T08:38:41;8.80;;;4.28;;
22628;SDS011;11481;53.694;9.910;2023-03-01T08:41:08;20.67;;;5.95;;
22628;SDS011;11481;53.694;9.910;2023-03-01T08:43:36;8.30;;;4.15;;
22628;SDS011;11481;53.694;9.910;2023-03-01T08:46:03;10.18;;;5.35;;
22628;SDS011;11481;53.694;9.910;2023-03-01T08:48:30;7.40;;;4.10;;
22628;SDS011;11481;53.694;9.910;2023-03-01T08:50:57;6.40;;;3.95;;
22628;SDS011;11481;53.694;9.910;2023-03-01T08:53:37;15.13;;;4.88;;
22628;SDS011;11481;53.694;9.910;2023-03-01T08:56:03;12.13;;;5.38;;
22628;SDS011;11481;53.694;9.910;2023-03-01T08:58:31;13.48;;;4.70;;
22628;SDS011;11481;53.694;9.910;2023-03-01T09:00:59;8.75;;;4.78;;
22628;SDS011;11481;53.694;9.910;2023-03-01T09:03:27;11.35;;;4.30;;
22628;SDS011;11481;53.694;9.910;2023-03-01T09:05:53;11.52;;;5.13;;
22628;SDS011;11481;53.694;9.910;2023-03-01T09:08:26;15.65;;;5.45;;
22628;SDS011;11481;53.694;9.910;2023-03-01T09:10:56;11.68;;;5.88;;
22628;SDS011;11481;53.694;9.910;2023-03-01T09:13:27;7.70;;;4.00;;
22628;SDS011;11481;53.694;9.910;2023-03-01T09:15:58;13.70;;;5.65;;
22628;SDS011;11481;53.694;9.910;2023-03-01T09:18:27;13.50;;;3.92;;
22628;SDS011;11481;53.694;9.910;2023-03-01T09:21:02;10.65;;;5.05;;
22628;SDS011;11481;53.694;9.910;2023-03-01T09:23:38;11.82;;;4.78;;
22628;SDS011;11481;53.694;9.910;2023-03-01T09:26:10;13.48;;;4.70;;
22628;SDS011;11481;53.694;9.910;2023-03-01T09:28:39;8.48;;;4.00;;
22628;SDS011;11481;53.694;9.910;2023-03-01T09:31:07;15.52;;;4.72;;
22628;SDS011;11481;53.694;9.910;2023-03-01T09:33:34;10.40;;;4.30;;
22628;SDS011;11481;53.694;9.910;2023-03-01T09:36:02;9.05;;;3.33;;
22628;SDS011;11481;53.694;9.910;2023-03-01T09:38:30;10.77;;;3.70;;
22628;SDS011;11481;53.694;9.910;2023-03-01T09:41:00;12.93;;;4.70;;
22628;SDS011;11481;53.694;9.910;2023-03-01T09:43:49;8.32;;;4.03;;
22628;SDS011;11481;53.694;9.910;2023-03-01T09:46:22;2.95;;;2.13;;
22628;SDS011;11481;53.694;9.910;2023-03-01T09:48:52;8.07;;;3.10;;
22628;SDS011;11481;53.694;9.910;2023-03-01T09:51:29;6.72;;;2.92;;
22628;SDS011;11481;53.694;9.910;2023-03-01T09:54:03;6.40;;;2.95;;
22628;SDS011;11481;53.694;9.910;2023-03-01T09:56:44;7.20;;;3.15;;
22628;SDS011;11481;53.694;9.910;2023-03-01T09:59:28;9.60;;;3.03;;
22628;SDS011;11481;53.694;9.910;2023-03-01T10:02:21;6.43;;;3.30;;
22628;SDS011;11481;53.694;9.910;2023-03-01T10:04:59;7.57;;;3.25;;
22628;SDS011;11481;53.694;9.910;2023-03-01T10:10:43;7.40;;;3.20;;
22628;SDS011;11481;53.694;9.910;2023-03-01T10:13:16;12.93;;;4.22;;
22628;SDS011;11481;53.694;9.910;2023-03-01T10:15:59;6.93;;;3.75;;
22628;SDS011;11481;53.694;9.910;2023-03-01T10:18:36;6.15;;;2.70;;
22628;SDS011;11481;53.694;9.910;2023-03-01T10:21:14;7.95;;;3.08;;
22628;SDS011;11481;53.694;9.910;2023-03-01T10:23:43;5.97;;;2.70;;
22628;SDS011;11481;53.694;9.910;2023-03-01T10:29:08;5.50;;;2.65;;
22628;SDS011;11481;53.694;9.910;2023-03-01T10:31:47;8.50;;;3.70;;
22628;SDS011;11481;53.694;9.910;2023-03-01T10:34:16;6.70;;;3.42;;
22628;SDS011;11481;53.694;9.910;2023-03-01T10:37:10;5.30;;;3.30;;
22628;SDS011;11481;53.694;9.910;2023-03-01T10:39:53;8.07;;;2.88;;
22628;SDS011;11481;53.694;9.910;2023-03-01T10:42:40;7.70;;;2.70;;
22628;SDS011;11481;53.694;9.910;2023-03-01T10:48:23;7.15;;;3.30;;
22628;SDS011;11481;53.694;9.910;2023-03-01T10:53:30;8.82;;;3.65;;
22628;SDS011;11481;53.694;9.910;2023-03-01T10:58:29;8.23;;;3.80;;
22628;SDS011;11481;53.694;9.910;2023-03-01T11:01:43;9.00;;;3.30;;
22628;SDS011;11481;53.694;9.910;2023-03-01T11:03:44;10.65;;;3.88;;
22628;SDS011;11481;53.694;9.910;2023-03-01T11:08:39;10.82;;;4.13;;
22628;SDS011;11481;53.694;9.910;2023-03-01T11:13:40;10.25;;;3.95;;
22628;SDS011;11481;53.694;9.910;2023-03-01T11:18:58;16.00;;;5.13;;
22628;SDS011;11481;53.694;9.910;2023-03-01T11:21:30;12.38;;;4.68;;
22628;SDS011;11481;53.694;9.910;2023-03-01T11:24:03;13.98;;;4.80;;
22628;SDS011;11481;53.694;9.910;2023-03-01T11:26:34;11.32;;;4.78;;
22628;SDS011;11481;53.694;9.910;2023-03-01T11:29:05;12.10;;;4.57;;
22628;SDS011;11481;53.694;9.910;2023-03-01T11:31:39;10.35;;;4.50;;
22628;SDS011;11481;53.694;9.910;2023-03-01T11:34:35;8.73;;;3.55;;
22628;SDS011;11481;53.694;9.910;2023-03-01T11:37:12;10.75;;;3.50;;
22628;SDS011;11481;53.694;9.910;2023-03-01T11:39:53;8.48;;;3.53;;
22628;SDS011;11481;53.694;9.910;2023-03-01T11:42:56;12.07;;;3.83;;
22628;SDS011;11481;53.694;9.910;2023-03-01T11:45:39;13.65;;;4.05;;
22628;SDS011;11481;53.694;9.910;2023-03-01T11:56:50;8.88;;;3.33;;
22628;SDS011;11481;53.694;9.910;2023-03-01T12:08:34;9.07;;;3.05;;
22628;SDS011;11481;53.694;9.910;2023-03-01T12:22:31;8.52;;;3.13;;
22628;SDS011;11481;53.694;9.910;2023-03-01T12:25:11;9.55;;;4.03;;
22628;SDS011;11481;53.694;9.910;2023-03-01T12:49:33;11.18;;;3.25;;
22628;SDS011;11481;53.694;9.910;2023-03-01T12:55:06;7.93;;;2.97;;
22628;SDS011;11481;53.694;9.910;2023-03-01T12:57:46;9.77;;;3.53;;
22628;SDS011;11481;53.694;9.910;2023-03-01T13:00:37;8.88;;;2.90;;
22628;SDS011;11481;53.694;9.910;2023-03-01T13:03:21;9.13;;;3.70;;
22628;SDS011;11481;53.694;9.910;2023-03-01T13:08:44;10.40;;;3.85;;
22628;SDS011;11481;53.694;9.910;2023-03-01T13:11:21;8.20;;;3.33;;
22628;SDS011;11481;53.694;9.910;2023-03-01T13:13:49;7.45;;;2.75;;
22628;SDS011;11481;53.694;9.910;2023-03-01T13:16:20;5.20;;;3.08;;
22628;SDS011;11481;53.694;9.910;2023-03-01T13:19:08;6.88;;;3.40;;
22628;SDS011;11481;53.694;9.910;2023-03-01T13:21:42;7.43;;;2.78;;
22628;SDS011;11481;53.694;9.910;2023-03-01T13:27:09;10.90;;;3.60;;
22628;SDS011;11481;53.694;9.910;2023-03-01T13:29:43;7.80;;;3.55;;
22628;SDS011;11481;53.694;9.910;2023-03-01T13:32:24;11.00;;;3.75;;
22628;SDS011;11481;53.694;9.910;2023-03-01T13:37:43;12.93;;;3.88;;
22628;SDS011;11481;53.694;9.910;2023-03-01T13:42:45;9.48;;;3.50;;
22628;SDS011;11481;53.694;9.910;2023-03-01T13:45:33;11.32;;;3.85;;
22628;SDS011;11481;53.694;9.910;2023-03-01T13:48:26;9.35;;;3.47;;
22628;SDS011;11481;53.694;9.910;2023-03-01T13:51:02;7.72;;;3.10;;
22628;SDS011;11481;53.694;9.910;2023-03-01T13:53:33;9.68;;;4.07;;
22628;SDS011;11481;53.694;9.910;2023-03-01T13:56:09;7.50;;;3.83;;
22628;SDS011;11481;53.694;9.910;2023-03-01T13:58:48;9.15;;;3.90;;
22628;SDS011;11481;53.694;9.910;2023-03-01T14:03:47;13.75;;;4.55;;
22628;SDS011;11481;53.694;9.910;2023-03-01T14:06:15;8.00;;;3.85;;
22628;SDS011;11481;53.694;9.910;2023-03-01T14:08:48;9.43;;;4.10;;
22628;SDS011;11481;53.694;9.910;2023-03-01T14:20:07;15.65;;;4.95;;
22628;SDS011;11481;53.694;9.910;2023-03-01T14:22:40;14.95;;;5.60;;
22628;SDS011;11481;53.694;9.910;2023-03-01T14:27:54;14.18;;;5.28;;
22628;SDS011;11481;53.694;9.910;2023-03-01T14:30:43;15.52;;;4.93;;
22628;SDS011;11481;53.694;9.910;2023-03-01T14:33:22;14.93;;;5.15;;
22628;SDS011;11481;53.694;9.910;2023-03-01T14:35:55;15.25;;;4.50;;
22628;SDS011;11481;53.694;9.910;2023-03-01T14:38:37;15.30;;;5.47;;
22628;SDS011;11481;53.694;9.910;2023-03-01T14:41:16;13.15;;;5.50;;
22628;SDS011;11481;53.694;9.910;2023-03-01T14:46:30;14.70;;;5.40;;
22628;SDS011;11481;53.694;9.910;2023-03-01T14:49:09;13.52;;;5.13;;
22628;SDS011;11481;53.694;9.910;2023-03-01T14:51:53;14.38;;;6.13;;
22628;SDS011;11481;53.694;9.910;2023-03-01T14:54:30;9.70;;;4.50;;
22628;SDS011;11481;53.694;9.910;2023-03-01T14:57:14;13.35;;;5.57;;
22628;SDS011;11481;53.694;9.910;2023-03-01T14:59:43;11.48;;;4.63;;
22628;SDS011;11481;53.694;9.910;2023-03-01T15:02:12;13.35;;;5.15;;
22628;SDS011;11481;53.694;9.910;2023-03-01T15:04:47;11.73;;;5.55;;
22628;SDS011;11481;53.694;9.910;2023-03-01T15:07:29;11.07;;;4.50;;
22628;SDS011;11481;53.694;9.910;2023-03-01T15:09:59;10.05;;;4.35;;
22628;SDS011;11481;53.694;9.910;2023-03-01T15:15:26;9.20;;;4.30;;
22628;SDS011;11481;53.694;9.910;2023-03-01T15:18:26;11.57;;;4.53;;
22628;SDS011;11481;53.694;9.910;2023-03-01T15:20:55;9.45;;;4.03;;
22628;SDS011;11481;53.694;9.910;2023-03-01T15:23:36;10.43;;;4.57;;
22628;SDS011;11481;53.694;9.910;2023-03-01T15:26:04;7.43;;;3.88;;
22628;SDS011;11481;53.694;9.910;2023-03-01T15:28:33;11.30;;;4.65;;
22628;SDS011;11481;53.694;9.910;2023-03-01T15:31:17;8.43;;;4.38;;
22628;SDS011;11481;53.694;9.910;2023-03-01T15:33:47;7.15;;;3.95;;
22628;SDS011;11481;53.694;9.910;2023-03-01T15:38:57;7.32;;;3.95;;
22628;SDS011;11481;53.694;9.910;2023-03-01T15:41:27;9.18;;;3.63;;
22628;SDS011;11481;53.694;9.910;2023-03-01T15:44:00;6.28;;;3.50;;
22628;SDS011;11481;53.694;9.910;2023-03-01T15:46:44;5.90;;;2.92;;
22628;SDS011;11481;53.694;9.910;2023-03-01T15:51:53;7.90;;;4.22;;
22628;SDS011;11481;53.694;9.910;2023-03-01T15:54:22;9.05;;;3.97;;
22628;SDS011;11481;53.694;9.910;2023-03-01T15:56:54;7.32;;;3.60;;
22628;SDS011;11481;53.694;9.910;2023-03-01T15:59:21;8.48;;;3.83;;
22628;SDS011;11481;53.694;9.910;2023-03-01T16:01:48;6.47;;;3.35;;
22628;SDS011;11481;53.694;9.910;2023-03-01T16:04:16;11.10;;;4.65;;
22628;SDS011;11481;53.694;9.910;2023-03-01T16:06:50;10.65;;;3.92;;
22628;SDS011;11481;53.694;9.910;2023-03-01T16:09:21;7.90;;;3.30;;
22628;SDS011;11481;53.694;9.910;2023-03-01T16:11:49;8.32;;;3.00;;
22628;SDS011;11481;53.694;9.910;2023-03-01T16:14:17;6.57;;;3.35;;
22628;SDS011;11481;53.694;9.910;2023-03-01T16:16:44;5.80;;;3.13;;
22628;SDS011;11481;53.694;9.910;2023-03-01T16:19:12;7.78;;;3.58;;
22628;SDS011;11481;53.694;9.910;2023-03-01T16:21:40;8.82;;;3.28;;
22628;SDS011;11481;53.694;9.910;2023-03-01T16:24:09;7.82;;;3.40;;
22628;SDS011;11481;53.694;9.910;2023-03-01T16:26:36;6.57;;;3.30;;
22628;SDS011;11481;53.694;9.910;2023-03-01T16:29:03;7.32;;;3.28;;
22628;SDS011;11481;53.694;9.910;2023-03-01T16:31:31;6.35;;;2.97;;
22628;SDS011;11481;53.694;9.910;2023-03-01T16:33:59;7.65;;;3.25;;
22628;SDS011;11481;53.694;9.910;2023-03-01T16:36:26;8.15;;;3.38;;
22628;SDS011;11481;53.694;9.910;2023-03-01T16:38:55;7.00;;;2.78;;
22628;SDS011;11481;53.694;9.910;2023-03-01T16:41:24;9.20;;;3.45;;
22628;SDS011;11481;53.694;9.910;2023-03-01T16:43:51;8.68;;;3.20;;
22628;SDS011;11481;53.694;9.910;2023-03-01T16:46:21;5.88;;;2.75;;
22628;SDS011;11481;53.694;9.910;2023-03-01T16:48:50;6.38;;;2.95;;
22628;SDS011;11481;53.694;9.910;2023-03-01T16:51:18;8.25;;;3.28;;
22628;SDS011;11481;53.694;9.910;2023-03-01T16:53:46;6.80;;;3.20;;
22628;SDS011;11481;53.694;9.910;2023-03-01T16:56:13;7.70;;;3.15;;
22628;SDS011;11481;53.694;9.910;2023-03-01T16:58:40;8.18;;;3.17;;
22628;SDS011;11481;53.694;9.910;2023-03-01T17:01:09;7.40;;;3.30;;
22628;SDS011;11481;53.694;9.910;2023-03-01T17:03:38;5.60;;;2.13;;
22628;SDS011;11481;53.694;9.910;2023-03-01T17:06:07;6.75;;;2.80;;
22628;SDS011;11481;53.694;9.910;2023-03-01T17:08:38;5.90;;;2.80;;
22628;SDS011;11481;53.694;9.910;2023-03-01T17:11:15;8.43;;;2.92;;